sensor_id;sensor_type;location;lat;lon;timestamp;P1;durP1;ratioP1;P2;durP2;ratioP2
57311;SDS011;43154;50.966;18.316;2023-10-08T02:54:50;11.80;;;2.50;;
57311;SDS011;43154;50.966;18.316;2023-10-08T02:55:23;15.80;;;2.90;;
57311;SDS011;43154;50.966;18.316;2023-10-08T02:56:14;12.60;;;2.90;;
57311;SDS011;43154;50.966;18.316;2023-10-08T02:56:46;11.40;;;2.50;;
57311;SDS011;43154;50.966;18.316;2023-10-08T02:57:21;15.30;;;2.40;;
57311;SDS011;43154;50.966;18.316;2023-10-08T02:57:52;15.10;;;2.30;;
57311;SDS011;43154;50.966;18.316;2023-10-08T02:58:22;10.40;;;2.30;;
57311;SDS011;43154;50.966;18.316;2023-10-08T02:58:55;14.00;;;2.40;;
57311;SDS011;43154;50.966;18.316;2023-10-08T02:59:30;12.10;;;2.60;;
57311;SDS011;43154;50.966;18.316;2023-10-08T03:00:09;13.80;;;2.60;;
57311;SDS011;43154;50.966;18.316;2023-10-08T03:00:43;13.40;;;2.40;;
57311;SDS011;43154;50.966;18.316;2023-10-08T03:01:17;12.70;;;2.70;;
57311;SDS011;43154;50.966;18.316;2023-10-08T03:01:47;11.30;;;2.30;;
57311;SDS011;43154;50.966;18.316;2023-10-08T03:02:28;11.50;;;2.30;;
57311;SDS011;43154;50.966;18.316;2023-10-08T03:02:58;13.20;;;2.50;;
57311;SDS011;43154;50.966;18.316;2023-10-08T03:03:32;14.20;;;2.50;;
57311;SDS011;43154;50.966;18.316;2023-10-08T03:04:02;15.20;;;2.60;;
57311;SDS011;43154;50.966;18.316;2023-10-08T03:04:40;11.70;;;2.50;;
57311;SDS011;43154;50.966;18.316;2023-10-08T03:05:13;12.20;;;2.50;;
57311;SDS011;43154;50.966;18.316;2023-10-08T03:05:47;15.20;;;2.80;;
57311;SDS011;43154;50.966;18.316;2023-10-08T03:06:19;15.40;;;2.50;;
57311;SDS011;43154;50.966;18.316;2023-10-08T03:06:50;14.90;;;2.50;;
57311;SDS011;43154;50.966;18.316;2023-10-08T03:07:21;11.20;;;2.40;;
57311;SDS011;43154;50.966;18.316;2023-10-08T03:07:51;11.90;;;2.40;;
57311;SDS011;43154;50.966;18.316;2023-10-08T03:08:22;12.90;;;2.40;;
57311;SDS011;43154;50.966;18.316;2023-10-08T03:08:53;11.50;;;2.40;;
57311;SDS011;43154;50.966;18.316;2023-10-08T03:09:24;15.60;;;2.60;;
57311;SDS011;43154;50.966;18.316;2023-10-08T03:09:56;13.20;;;2.40;;
57311;SDS011;43154;50.966;18.316;2023-10-08T03:10:34;11.10;;;2.40;;
57311;SDS011;43154;50.966;18.316;2023-10-08T03:11:04;11.70;;;2.10;;
57311;SDS011;43154;50.966;18.316;2023-10-08T03:11:37;16.50;;;2.60;;
57311;SDS011;43154;50.966;18.316;2023-10-08T03:12:07;12.10;;;2.50;;
57311;SDS011;43154;50.966;18.316;2023-10-08T03:12:40;10.50;;;2.40;;
57311;SDS011;43154;50.966;18.316;2023-10-08T03:13:13;14.40;;;2.30;;
57311;SDS011;43154;50.966;18.316;2023-10-08T03:13:44;11.10;;;2.20;;
57311;SDS011;43154;50.966;18.316;2023-10-08T03:14:24;9.20;;;2.10;;
57311;SDS011;43154;50.966;18.316;2023-10-08T03:15:12;12.50;;;2.30;;
57311;SDS011;43154;50.966;18.316;2023-10-08T03:15:44;12.80;;;2.30;;
57311;SDS011;43154;50.966;18.316;2023-10-08T03:16:38;12.30;;;2.40;;
57311;SDS011;43154;50.966;18.316;2023-10-08T03:17:11;10.90;;;2.30;;
57311;SDS011;43154;50.966;18.316;2023-10-08T03:17:42;10.00;;;2.10;;
57311;SDS011;43154;50.966;18.316;2023-10-08T03:18:19;11.50;;;2.20;;
57311;SDS011;43154;50.966;18.316;2023-10-08T03:18:51;10.70;;;2.00;;
57311;SDS011;43154;50.966;18.316;2023-10-08T03:19:22;9.70;;;2.20;;
57311;SDS011;43154;50.966;18.316;2023-10-08T03:19:52;10.70;;;2.20;;
57311;SDS011;43154;50.966;18.316;2023-10-08T03:20:28;12.60;;;2.40;;
57311;SDS011;43154;50.966;18.316;2023-10-08T03:21:13;10.40;;;2.30;;
57311;SDS011;43154;50.966;18.316;2023-10-08T03:22:12;12.60;;;2.30;;
57311;SDS011;43154;50.966;18.316;2023-10-08T03:22:43;12.20;;;2.20;;
57311;SDS011;43154;50.966;18.316;2023-10-08T03:23:16;13.20;;;2.50;;
57311;SDS011;43154;50.966;18.316;2023-10-08T03:23:56;12.70;;;2.40;;
57311;SDS011;43154;50.966;18.316;2023-10-08T03:24:30;15.20;;;2.40;;
57311;SDS011;43154;50.966;18.316;2023-10-08T03:25:10;11.20;;;2.10;;
57311;SDS011;43154;50.966;18.316;2023-10-08T03:25:47;11.60;;;2.20;;
57311;SDS011;43154;50.966;18.316;2023-10-08T03:26:18;17.20;;;2.50;;
57311;SDS011;43154;50.966;18.316;2023-10-08T03:27:04;12.10;;;2.30;;
57311;SDS011;43154;50.966;18.316;2023-10-08T03:27:50;9.80;;;2.00;;
57311;SDS011;43154;50.966;18.316;2023-10-08T03:28:22;13.10;;;2.50;;
57311;SDS011;43154;50.966;18.316;2023-10-08T03:28:55;9.00;;;2.20;;
57311;SDS011;43154;50.966;18.316;2023-10-08T03:29:28;10.80;;;2.10;;
57311;SDS011;43154;50.966;18.316;2023-10-08T03:30:00;8.60;;;2.20;;
57311;SDS011;43154;50.966;18.316;2023-10-08T03:30:31;13.30;;;2.50;;
57311;SDS011;43154;50.966;18.316;2023-10-08T03:31:07;12.60;;;2.70;;
57311;SDS011;43154;50.966;18.316;2023-10-08T03:31:46;13.30;;;2.50;;
57311;SDS011;43154;50.966;18.316;2023-10-08T03:32:17;14.40;;;2.50;;
57311;SDS011;43154;50.966;18.316;2023-10-08T03:32:48;11.70;;;2.20;;
57311;SDS011;43154;50.966;18.316;2023-10-08T03:33:25;13.50;;;2.40;;
57311;SDS011;43154;50.966;18.316;2023-10-08T03:33:59;10.20;;;2.20;;
57311;SDS011;43154;50.966;18.316;2023-10-08T03:34:29;10.80;;;2.20;;
57311;SDS011;43154;50.966;18.316;2023-10-08T03:35:04;10.60;;;2.50;;
57311;SDS011;43154;50.966;18.316;2023-10-08T03:35:40;12.50;;;2.30;;
57311;SDS011;43154;50.966;18.316;2023-10-08T03:36:13;9.50;;;2.20;;
57311;SDS011;43154;50.966;18.316;2023-10-08T03:36:53;9.50;;;2.00;;
57311;SDS011;43154;50.966;18.316;2023-10-08T03:37:30;13.00;;;2.30;;
57311;SDS011;43154;50.966;18.316;2023-10-08T03:38:11;12.90;;;2.40;;
57311;SDS011;43154;50.966;18.316;2023-10-08T03:39:11;11.30;;;2.30;;
57311;SDS011;43154;50.966;18.316;2023-10-08T03:39:44;10.40;;;2.00;;
57311;SDS011;43154;50.966;18.316;2023-10-08T03:40:33;13.00;;;2.10;;
57311;SDS011;43154;50.966;18.316;2023-10-08T03:41:14;11.50;;;2.40;;
57311;SDS011;43154;50.966;18.316;2023-10-08T03:41:48;10.60;;;2.10;;
57311;SDS011;43154;50.966;18.316;2023-10-08T03:42:29;12.40;;;2.40;;
57311;SDS011;43154;50.966;18.316;2023-10-08T03:43:04;10.60;;;2.30;;
57311;SDS011;43154;50.966;18.316;2023-10-08T03:43:45;10.00;;;2.30;;
57311;SDS011;43154;50.966;18.316;2023-10-08T03:44:34;10.60;;;2.20;;
57311;SDS011;43154;50.966;18.316;2023-10-08T03:45:07;10.00;;;2.40;;
57311;SDS011;43154;50.966;18.316;2023-10-08T03:45:42;10.60;;;2.20;;
57311;SDS011;43154;50.966;18.316;2023-10-08T03:46:22;10.20;;;2.10;;
57311;SDS011;43154;50.966;18.316;2023-10-08T03:46:56;13.30;;;2.50;;
57311;SDS011;43154;50.966;18.316;2023-10-08T03:47:27;9.80;;;2.10;;
57311;SDS011;43154;50.966;18.316;2023-10-08T03:48:01;12.90;;;2.30;;
57311;SDS011;43154;50.966;18.316;2023-10-08T03:48:38;12.50;;;2.30;;
57311;SDS011;43154;50.966;18.316;2023-10-08T03:49:12;12.60;;;2.40;;
57311;SDS011;43154;50.966;18.316;2023-10-08T03:49:52;10.80;;;2.20;;
57311;SDS011;43154;50.966;18.316;2023-10-08T03:50:24;12.90;;;2.50;;
57311;SDS011;43154;50.966;18.316;2023-10-08T03:51:03;13.00;;;2.50;;
57311;SDS011;43154;50.966;18.316;2023-10-08T03:51:37;12.70;;;2.40;;
57311;SDS011;43154;50.966;18.316;2023-10-08T03:52:11;11.30;;;2.50;;
57311;SDS011;43154;50.966;18.316;2023-10-08T03:52:43;12.10;;;2.60;;
57311;SDS011;43154;50.966;18.316;2023-10-08T03:53:14;11.30;;;2.40;;
57311;SDS011;43154;50.966;18.316;2023-10-08T03:53:47;11.30;;;2.40;;
57311;SDS011;43154;50.966;18.316;2023-10-08T03:54:37;11.90;;;2.10;;
57311;SDS011;43154;50.966;18.316;2023-10-08T03:55:13;12.50;;;2.40;;
57311;SDS011;43154;50.966;18.316;2023-10-08T03:55:52;12.80;;;2.40;;
57311;SDS011;43154;50.966;18.316;2023-10-08T03:56:25;12.80;;;2.40;;
57311;SDS011;43154;50.966;18.316;2023-10-08T03:56:59;16.00;;;2.50;;
57311;SDS011;43154;50.966;18.316;2023-10-08T03:57:31;11.50;;;2.40;;
57311;SDS011;43154;50.966;18.316;2023-10-08T03:58:17;9.90;;;2.10;;
57311;SDS011;43154;50.966;18.316;2023-10-08T03:58:58;11.30;;;2.30;;
57311;SDS011;43154;50.966;18.316;2023-10-08T03:59:34;14.10;;;2.80;;
57311;SDS011;43154;50.966;18.316;2023-10-08T04:00:11;11.90;;;2.40;;
57311;SDS011;43154;50.966;18.316;2023-10-08T04:00:49;12.90;;;2.40;;
57311;SDS011;43154;50.966;18.316;2023-10-08T04:01:20;11.70;;;2.50;;
57311;SDS011;43154;50.966;18.316;2023-10-08T04:01:52;12.60;;;2.40;;
57311;SDS011;43154;50.966;18.316;2023-10-08T04:02:30;9.20;;;2.20;;
57311;SDS011;43154;50.966;18.316;2023-10-08T04:03:11;11.40;;;2.40;;
57311;SDS011;43154;50.966;18.316;2023-10-08T04:03:42;13.20;;;2.70;;
57311;SDS011;43154;50.966;18.316;2023-10-08T04:04:28;11.80;;;2.50;;
57311;SDS011;43154;50.966;18.316;2023-10-08T04:05:19;11.50;;;2.30;;
57311;SDS011;43154;50.966;18.316;2023-10-08T04:05:53;8.40;;;2.10;;
57311;SDS011;43154;50.966;18.316;2023-10-08T04:06:44;11.50;;;2.40;;
57311;SDS011;43154;50.966;18.316;2023-10-08T04:07:25;12.60;;;2.50;;
57311;SDS011;43154;50.966;18.316;2023-10-08T04:08:02;11.50;;;2.50;;
57311;SDS011;43154;50.966;18.316;2023-10-08T04:08:47;13.60;;;2.50;;
57311;SDS011;43154;50.966;18.316;2023-10-08T04:09:37;14.60;;;2.60;;
57311;SDS011;43154;50.966;18.316;2023-10-08T04:10:10;14.40;;;2.80;;
57311;SDS011;43154;50.966;18.316;2023-10-08T04:10:41;15.20;;;2.90;;
57311;SDS011;43154;50.966;18.316;2023-10-08T04:11:14;13.70;;;2.50;;
57311;SDS011;43154;50.966;18.316;2023-10-08T04:12:04;14.30;;;3.00;;
57311;SDS011;43154;50.966;18.316;2023-10-08T04:12:41;12.10;;;2.50;;
57311;SDS011;43154;50.966;18.316;2023-10-08T04:13:14;12.20;;;2.40;;
57311;SDS011;43154;50.966;18.316;2023-10-08T04:13:46;12.20;;;2.50;;
57311;SDS011;43154;50.966;18.316;2023-10-08T04:14:19;10.70;;;2.40;;
57311;SDS011;43154;50.966;18.316;2023-10-08T04:14:50;12.20;;;2.40;;
57311;SDS011;43154;50.966;18.316;2023-10-08T04:15:22;11.70;;;2.60;;
57311;SDS011;43154;50.966;18.316;2023-10-08T04:15:53;11.90;;;2.80;;
57311;SDS011;43154;50.966;18.316;2023-10-08T04:16:25;16.30;;;2.60;;
57311;SDS011;43154;50.966;18.316;2023-10-08T04:16:58;12.20;;;2.30;;
57311;SDS011;43154;50.966;18.316;2023-10-08T04:17:29;13.00;;;2.90;;
57311;SDS011;43154;50.966;18.316;2023-10-08T04:18:00;12.30;;;2.60;;
57311;SDS011;43154;50.966;18.316;2023-10-08T04:18:33;13.10;;;2.50;;
57311;SDS011;43154;50.966;18.316;2023-10-08T04:19:13;11.90;;;2.50;;
57311;SDS011;43154;50.966;18.316;2023-10-08T04:19:48;12.60;;;2.40;;
57311;SDS011;43154;50.966;18.316;2023-10-08T04:20:21;12.70;;;2.50;;
57311;SDS011;43154;50.966;18.316;2023-10-08T04:21:03;15.80;;;2.40;;
57311;SDS011;43154;50.966;18.316;2023-10-08T04:21:35;12.60;;;2.40;;
57311;SDS011;43154;50.966;18.316;2023-10-08T04:22:06;11.70;;;2.40;;
57311;SDS011;43154;50.966;18.316;2023-10-08T04:22:46;14.30;;;2.40;;
57311;SDS011;43154;50.966;18.316;2023-10-08T04:23:20;14.20;;;2.90;;
57311;SDS011;43154;50.966;18.316;2023-10-08T04:23:51;13.00;;;2.50;;
57311;SDS011;43154;50.966;18.316;2023-10-08T04:24:23;10.60;;;2.40;;
57311;SDS011;43154;50.966;18.316;2023-10-08T04:24:58;11.00;;;2.40;;
57311;SDS011;43154;50.966;18.316;2023-10-08T04:25:36;10.70;;;2.20;;
57311;SDS011;43154;50.966;18.316;2023-10-08T04:26:07;14.10;;;2.40;;
57311;SDS011;43154;50.966;18.316;2023-10-08T04:26:39;11.70;;;2.60;;
57311;SDS011;43154;50.966;18.316;2023-10-08T04:27:13;13.90;;;2.50;;
57311;SDS011;43154;50.966;18.316;2023-10-08T04:27:49;14.60;;;2.50;;
57311;SDS011;43154;50.966;18.316;2023-10-08T04:28:20;12.60;;;2.40;;
57311;SDS011;43154;50.966;18.316;2023-10-08T04:28:53;15.10;;;2.70;;
57311;SDS011;43154;50.966;18.316;2023-10-08T04:29:30;13.60;;;2.50;;
57311;SDS011;43154;50.966;18.316;2023-10-08T04:30:02;13.30;;;2.40;;
57311;SDS011;43154;50.966;18.316;2023-10-08T04:30:33;12.70;;;2.60;;
57311;SDS011;43154;50.966;18.316;2023-10-08T04:31:05;17.10;;;2.70;;
57311;SDS011;43154;50.966;18.316;2023-10-08T04:31:45;13.00;;;2.50;;
57311;SDS011;43154;50.966;18.316;2023-10-08T04:32:17;10.30;;;2.30;;
57311;SDS011;43154;50.966;18.316;2023-10-08T04:32:55;12.80;;;2.50;;
57311;SDS011;43154;50.966;18.316;2023-10-08T04:33:28;12.60;;;2.30;;
57311;SDS011;43154;50.966;18.316;2023-10-08T04:34:04;17.80;;;2.40;;
57311;SDS011;43154;50.966;18.316;2023-10-08T04:34:47;14.00;;;2.30;;
57311;SDS011;43154;50.966;18.316;2023-10-08T04:35:20;13.30;;;2.40;;
57311;SDS011;43154;50.966;18.316;2023-10-08T04:35:59;13.90;;;2.50;;
57311;SDS011;43154;50.966;18.316;2023-10-08T04:36:32;12.80;;;2.20;;
57311;SDS011;43154;50.966;18.316;2023-10-08T04:37:03;9.90;;;2.40;;
57311;SDS011;43154;50.966;18.316;2023-10-08T04:37:42;13.50;;;2.40;;
57311;SDS011;43154;50.966;18.316;2023-10-08T04:38:20;11.20;;;2.70;;
57311;SDS011;43154;50.966;18.316;2023-10-08T04:38:56;14.30;;;2.70;;
57311;SDS011;43154;50.966;18.316;2023-10-08T04:39:32;12.30;;;2.10;;
57311;SDS011;43154;50.966;18.316;2023-10-08T04:40:09;11.00;;;2.20;;
57311;SDS011;43154;50.966;18.316;2023-10-08T04:40:46;12.20;;;2.30;;
57311;SDS011;43154;50.966;18.316;2023-10-08T04:41:21;12.80;;;2.40;;
57311;SDS011;43154;50.966;18.316;2023-10-08T04:41:58;13.90;;;2.40;;
57311;SDS011;43154;50.966;18.316;2023-10-08T04:42:36;11.60;;;2.10;;
57311;SDS011;43154;50.966;18.316;2023-10-08T04:43:07;15.10;;;2.50;;
57311;SDS011;43154;50.966;18.316;2023-10-08T04:43:40;12.30;;;2.60;;
57311;SDS011;43154;50.966;18.316;2023-10-08T04:44:13;12.50;;;2.30;;
57311;SDS011;43154;50.966;18.316;2023-10-08T04:44:46;10.30;;;2.50;;
57311;SDS011;43154;50.966;18.316;2023-10-08T04:45:17;11.10;;;2.50;;
57311;SDS011;43154;50.966;18.316;2023-10-08T04:45:57;15.80;;;2.50;;
57311;SDS011;43154;50.966;18.316;2023-10-08T04:46:28;15.50;;;2.60;;
57311;SDS011;43154;50.966;18.316;2023-10-08T04:47:17;14.10;;;2.70;;
57311;SDS011;43154;50.966;18.316;2023-10-08T04:48:04;12.00;;;2.30;;
57311;SDS011;43154;50.966;18.316;2023-10-08T04:48:41;15.50;;;2.60;;
57311;SDS011;43154;50.966;18.316;2023-10-08T04:49:14;13.60;;;2.60;;
57311;SDS011;43154;50.966;18.316;2023-10-08T04:49:58;15.20;;;2.50;;
57311;SDS011;43154;50.966;18.316;2023-10-08T04:50:28;14.30;;;2.60;;
57311;SDS011;43154;50.966;18.316;2023-10-08T04:51:01;11.60;;;2.50;;
57311;SDS011;43154;50.966;18.316;2023-10-08T04:51:32;17.00;;;2.80;;
57311;SDS011;43154;50.966;18.316;2023-10-08T04:52:14;13.10;;;2.80;;
57311;SDS011;43154;50.966;18.316;2023-10-08T04:52:44;13.50;;;2.80;;
57311;SDS011;43154;50.966;18.316;2023-10-08T04:53:29;13.00;;;2.50;;
57311;SDS011;43154;50.966;18.316;2023-10-08T04:54:07;15.10;;;2.50;;
57311;SDS011;43154;50.966;18.316;2023-10-08T04:54:38;12.90;;;2.50;;
57311;SDS011;43154;50.966;18.316;2023-10-08T04:55:10;10.30;;;2.50;;
57311;SDS011;43154;50.966;18.316;2023-10-08T04:55:47;14.70;;;2.70;;
57311;SDS011;43154;50.966;18.316;2023-10-08T04:56:18;12.60;;;2.60;;
57311;SDS011;43154;50.966;18.316;2023-10-08T04:56:49;9.90;;;2.50;;
57311;SDS011;43154;50.966;18.316;2023-10-08T04:57:20;13.90;;;2.70;;
57311;SDS011;43154;50.966;18.316;2023-10-08T04:57:56;15.70;;;2.80;;
57311;SDS011;43154;50.966;18.316;2023-10-08T04:58:26;11.40;;;2.50;;
57311;SDS011;43154;50.966;18.316;2023-10-08T04:59:03;10.50;;;2.50;;
57311;SDS011;43154;50.966;18.316;2023-10-08T04:59:35;11.00;;;2.50;;
57311;SDS011;43154;50.966;18.316;2023-10-08T05:00:06;11.90;;;2.50;;
57311;SDS011;43154;50.966;18.316;2023-10-08T05:00:43;13.00;;;2.50;;
57311;SDS011;43154;50.966;18.316;2023-10-08T05:01:30;11.40;;;2.70;;
57311;SDS011;43154;50.966;18.316;2023-10-08T05:02:10;11.90;;;2.70;;
57311;SDS011;43154;50.966;18.316;2023-10-08T05:02:44;10.70;;;2.90;;
57311;SDS011;43154;50.966;18.316;2023-10-08T05:03:20;15.10;;;3.00;;
57311;SDS011;43154;50.966;18.316;2023-10-08T05:03:54;14.80;;;2.90;;
57311;SDS011;43154;50.966;18.316;2023-10-08T05:04:28;12.30;;;2.90;;
57311;SDS011;43154;50.966;18.316;2023-10-08T05:05:16;12.60;;;2.70;;
57311;SDS011;43154;50.966;18.316;2023-10-08T05:05:47;11.60;;;2.90;;
57311;SDS011;43154;50.966;18.316;2023-10-08T05:06:39;14.50;;;3.00;;
57311;SDS011;43154;50.966;18.316;2023-10-08T05:07:20;10.30;;;2.40;;
57311;SDS011;43154;50.966;18.316;2023-10-08T05:07:57;15.10;;;2.90;;
57311;SDS011;43154;50.966;18.316;2023-10-08T05:08:31;13.20;;;3.00;;
57311;SDS011;43154;50.966;18.316;2023-10-08T05:09:40;12.00;;;2.70;;
57311;SDS011;43154;50.966;18.316;2023-10-08T05:10:34;11.90;;;2.80;;
57311;SDS011;43154;50.966;18.316;2023-10-08T05:11:15;11.00;;;3.00;;
57311;SDS011;43154;50.966;18.316;2023-10-08T05:11:54;15.20;;;3.00;;
57311;SDS011;43154;50.966;18.316;2023-10-08T05:12:44;11.10;;;2.80;;
57311;SDS011;43154;50.966;18.316;2023-10-08T05:13:31;11.60;;;2.70;;
57311;SDS011;43154;50.966;18.316;2023-10-08T05:14:05;15.40;;;2.90;;
57311;SDS011;43154;50.966;18.316;2023-10-08T05:14:36;12.60;;;2.80;;
57311;SDS011;43154;50.966;18.316;2023-10-08T05:15:12;13.10;;;2.80;;
57311;SDS011;43154;50.966;18.316;2023-10-08T05:15:43;14.20;;;2.80;;
57311;SDS011;43154;50.966;18.316;2023-10-08T05:16:34;13.20;;;2.90;;
57311;SDS011;43154;50.966;18.316;2023-10-08T05:17:14;14.50;;;2.90;;
57311;SDS011;43154;50.966;18.316;2023-10-08T05:17:48;13.40;;;2.90;;
57311;SDS011;43154;50.966;18.316;2023-10-08T05:18:24;13.00;;;2.70;;
57311;SDS011;43154;50.966;18.316;2023-10-08T05:19:08;14.00;;;3.10;;
57311;SDS011;43154;50.966;18.316;2023-10-08T05:20:15;14.20;;;2.60;;
57311;SDS011;43154;50.966;18.316;2023-10-08T05:21:00;11.60;;;2.30;;
57311;SDS011;43154;50.966;18.316;2023-10-08T05:21:45;14.30;;;2.40;;
57311;SDS011;43154;50.966;18.316;2023-10-08T05:22:32;12.10;;;2.40;;
57311;SDS011;43154;50.966;18.316;2023-10-08T05:23:07;9.70;;;2.50;;
57311;SDS011;43154;50.966;18.316;2023-10-08T05:24:12;12.40;;;2.80;;
57311;SDS011;43154;50.966;18.316;2023-10-08T05:24:44;11.40;;;2.70;;
57311;SDS011;43154;50.966;18.316;2023-10-08T05:25:41;12.40;;;2.50;;
57311;SDS011;43154;50.966;18.316;2023-10-08T05:26:28;10.10;;;2.50;;
57311;SDS011;43154;50.966;18.316;2023-10-08T05:27:15;13.90;;;2.80;;
57311;SDS011;43154;50.966;18.316;2023-10-08T05:28:05;10.80;;;2.50;;
57311;SDS011;43154;50.966;18.316;2023-10-08T05:28:54;15.50;;;2.80;;
57311;SDS011;43154;50.966;18.316;2023-10-08T05:29:31;12.80;;;2.50;;
57311;SDS011;43154;50.966;18.316;2023-10-08T05:30:29;9.80;;;2.40;;
57311;SDS011;43154;50.966;18.316;2023-10-08T05:31:23;11.20;;;2.40;;
57311;SDS011;43154;50.966;18.316;2023-10-08T05:32:15;11.10;;;2.80;;
57311;SDS011;43154;50.966;18.316;2023-10-08T05:33:09;11.60;;;2.60;;
57311;SDS011;43154;50.966;18.316;2023-10-08T05:33:54;11.90;;;2.90;;
57311;SDS011;43154;50.966;18.316;2023-10-08T05:34:34;13.70;;;2.70;;
57311;SDS011;43154;50.966;18.316;2023-10-08T05:35:13;14.90;;;3.00;;
57311;SDS011;43154;50.966;18.316;2023-10-08T05:36:02;15.60;;;2.80;;
57311;SDS011;43154;50.966;18.316;2023-10-08T05:36:43;11.70;;;2.50;;
57311;SDS011;43154;50.966;18.316;2023-10-08T05:37:21;14.00;;;2.90;;
57311;SDS011;43154;50.966;18.316;2023-10-08T05:38:15;15.70;;;2.80;;
57311;SDS011;43154;50.966;18.316;2023-10-08T05:39:07;13.60;;;2.90;;
57311;SDS011;43154;50.966;18.316;2023-10-08T05:39:57;10.30;;;2.60;;
57311;SDS011;43154;50.966;18.316;2023-10-08T05:40:44;14.50;;;2.90;;
57311;SDS011;43154;50.966;18.316;2023-10-08T05:41:34;12.30;;;3.00;;
57311;SDS011;43154;50.966;18.316;2023-10-08T05:42:21;11.90;;;2.80;;
57311;SDS011;43154;50.966;18.316;2023-10-08T05:42:58;12.30;;;2.70;;
57311;SDS011;43154;50.966;18.316;2023-10-08T05:43:44;11.60;;;2.90;;
57311;SDS011;43154;50.966;18.316;2023-10-08T05:44:15;12.70;;;2.70;;
57311;SDS011;43154;50.966;18.316;2023-10-08T05:44:54;11.80;;;2.80;;
57311;SDS011;43154;50.966;18.316;2023-10-08T05:45:37;11.30;;;2.80;;
57311;SDS011;43154;50.966;18.316;2023-10-08T05:46:51;14.70;;;2.80;;
57311;SDS011;43154;50.966;18.316;2023-10-08T05:47:25;16.60;;;2.90;;
57311;SDS011;43154;50.966;18.316;2023-10-08T05:48:05;12.80;;;2.60;;
57311;SDS011;43154;50.966;18.316;2023-10-08T05:48:45;16.70;;;3.10;;
57311;SDS011;43154;50.966;18.316;2023-10-08T05:49:21;15.00;;;3.10;;
57311;SDS011;43154;50.966;18.316;2023-10-08T05:50:02;12.00;;;2.70;;
57311;SDS011;43154;50.966;18.316;2023-10-08T05:51:06;14.30;;;2.60;;
57311;SDS011;43154;50.966;18.316;2023-10-08T05:51:44;14.40;;;2.70;;
57311;SDS011;43154;50.966;18.316;2023-10-08T05:52:17;9.20;;;2.40;;
57311;SDS011;43154;50.966;18.316;2023-10-08T05:53:17;10.90;;;2.40;;
57311;SDS011;43154;50.966;18.316;2023-10-08T05:54:03;12.30;;;2.80;;
57311;SDS011;43154;50.966;18.316;2023-10-08T05:54:45;13.80;;;2.60;;
57311;SDS011;43154;50.966;18.316;2023-10-08T05:55:38;13.70;;;2.80;;
57311;SDS011;43154;50.966;18.316;2023-10-08T05:56:20;9.50;;;2.60;;
57311;SDS011;43154;50.966;18.316;2023-10-08T05:57:12;12.50;;;2.70;;
57311;SDS011;43154;50.966;18.316;2023-10-08T05:57:43;11.70;;;2.70;;
57311;SDS011;43154;50.966;18.316;2023-10-08T05:58:25;11.10;;;2.60;;
57311;SDS011;43154;50.966;18.316;2023-10-08T05:59:08;11.00;;;2.60;;
57311;SDS011;43154;50.966;18.316;2023-10-08T05:59:48;12.70;;;2.50;;
57311;SDS011;43154;50.966;18.316;2023-10-08T06:00:28;10.70;;;2.50;;
57311;SDS011;43154;50.966;18.316;2023-10-08T06:01:05;10.90;;;2.50;;
57311;SDS011;43154;50.966;18.316;2023-10-08T06:01:42;11.90;;;2.90;;
57311;SDS011;43154;50.966;18.316;2023-10-08T06:02:16;11.90;;;3.00;;
57311;SDS011;43154;50.966;18.316;2023-10-08T06:03:05;13.90;;;3.00;;
57311;SDS011;43154;50.966;18.316;2023-10-08T06:03:59;13.90;;;3.00;;
57311;SDS011;43154;50.966;18.316;2023-10-08T06:04:51;12.10;;;3.10;;
57311;SDS011;43154;50.966;18.316;2023-10-08T06:05:41;12.20;;;3.20;;
57311;SDS011;43154;50.966;18.316;2023-10-08T06:06:17;15.30;;;3.80;;
57311;SDS011;43154;50.966;18.316;2023-10-08T06:06:48;16.60;;;4.50;;
57311;SDS011;43154;50.966;18.316;2023-10-08T06:07:39;12.60;;;3.70;;
57311;SDS011;43154;50.966;18.316;2023-10-08T06:08:23;14.70;;;4.20;;
57311;SDS011;43154;50.966;18.316;2023-10-08T06:09:14;15.90;;;4.40;;
57311;SDS011;43154;50.966;18.316;2023-10-08T06:09:45;16.90;;;4.80;;
57311;SDS011;43154;50.966;18.316;2023-10-08T06:10:35;22.50;;;4.90;;
57311;SDS011;43154;50.966;18.316;2023-10-08T06:11:06;17.80;;;4.80;;
57311;SDS011;43154;50.966;18.316;2023-10-08T06:11:47;17.00;;;4.50;;
57311;SDS011;43154;50.966;18.316;2023-10-08T06:12:48;13.80;;;4.40;;
57311;SDS011;43154;50.966;18.316;2023-10-08T06:13:31;17.00;;;4.80;;
57311;SDS011;43154;50.966;18.316;2023-10-08T06:14:25;15.70;;;4.50;;
57311;SDS011;43154;50.966;18.316;2023-10-08T06:15:21;15.60;;;4.80;;
57311;SDS011;43154;50.966;18.316;2023-10-08T06:16:08;16.10;;;4.90;;
57311;SDS011;43154;50.966;18.316;2023-10-08T06:16:42;17.90;;;5.10;;
57311;SDS011;43154;50.966;18.316;2023-10-08T06:17:17;17.20;;;5.80;;
57311;SDS011;43154;50.966;18.316;2023-10-08T06:18:04;15.70;;;5.70;;
57311;SDS011;43154;50.966;18.316;2023-10-08T06:18:35;19.60;;;5.90;;
57311;SDS011;43154;50.966;18.316;2023-10-08T06:19:08;17.60;;;5.40;;
57311;SDS011;43154;50.966;18.316;2023-10-08T06:19:40;18.40;;;6.40;;
57311;SDS011;43154;50.966;18.316;2023-10-08T06:20:11;19.20;;;5.90;;
57311;SDS011;43154;50.966;18.316;2023-10-08T06:20:49;17.40;;;5.80;;
57311;SDS011;43154;50.966;18.316;2023-10-08T06:21:24;17.40;;;5.90;;
57311;SDS011;43154;50.966;18.316;2023-10-08T06:21:57;18.90;;;5.80;;
57311;SDS011;43154;50.966;18.316;2023-10-08T06:22:33;17.40;;;6.10;;
57311;SDS011;43154;50.966;18.316;2023-10-08T06:23:05;22.60;;;6.60;;
57311;SDS011;43154;50.966;18.316;2023-10-08T06:23:39;21.30;;;6.70;;
57311;SDS011;43154;50.966;18.316;2023-10-08T06:24:14;19.20;;;6.70;;
57311;SDS011;43154;50.966;18.316;2023-10-08T06:24:48;21.80;;;6.70;;
57311;SDS011;43154;50.966;18.316;2023-10-08T06:25:20;21.50;;;6.40;;
57311;SDS011;43154;50.966;18.316;2023-10-08T06:26:01;17.80;;;6.20;;
57311;SDS011;43154;50.966;18.316;2023-10-08T06:26:38;20.70;;;6.70;;
57311;SDS011;43154;50.966;18.316;2023-10-08T06:27:21;19.60;;;6.80;;
57311;SDS011;43154;50.966;18.316;2023-10-08T06:27:55;19.60;;;6.80;;
57311;SDS011;43154;50.966;18.316;2023-10-08T06:28:29;21.70;;;6.70;;
57311;SDS011;43154;50.966;18.316;2023-10-08T06:29:00;17.50;;;6.90;;
57311;SDS011;43154;50.966;18.316;2023-10-08T06:29:37;19.60;;;7.20;;
57311;SDS011;43154;50.966;18.316;2023-10-08T06:30:15;18.50;;;7.20;;
57311;SDS011;43154;50.966;18.316;2023-10-08T06:30:47;18.60;;;6.60;;
57311;SDS011;43154;50.966;18.316;2023-10-08T06:31:19;24.50;;;7.40;;
57311;SDS011;43154;50.966;18.316;2023-10-08T06:31:58;21.90;;;7.10;;
57311;SDS011;43154;50.966;18.316;2023-10-08T06:32:35;19.20;;;7.30;;
57311;SDS011;43154;50.966;18.316;2023-10-08T06:33:09;19.80;;;7.20;;
57311;SDS011;43154;50.966;18.316;2023-10-08T06:33:40;22.40;;;7.60;;
57311;SDS011;43154;50.966;18.316;2023-10-08T06:34:11;20.70;;;7.10;;
57311;SDS011;43154;50.966;18.316;2023-10-08T06:34:45;20.70;;;7.00;;
57311;SDS011;43154;50.966;18.316;2023-10-08T06:35:17;24.10;;;7.80;;
57311;SDS011;43154;50.966;18.316;2023-10-08T06:35:48;18.80;;;7.40;;
57311;SDS011;43154;50.966;18.316;2023-10-08T06:36:40;19.70;;;7.30;;
57311;SDS011;43154;50.966;18.316;2023-10-08T06:37:11;18.90;;;7.00;;
57311;SDS011;43154;50.966;18.316;2023-10-08T06:37:46;21.50;;;7.40;;